sensor_id;sensor_type;location;lat;lon;timestamp;pressure;altitude;pressure_sealevel;temperature;humidity
49044;BME280;34860;48.066;14.124;2023-05-21T00:02:17;96585.81;;;16.79;63.91
49044;BME280;34860;48.066;14.124;2023-05-21T00:05:07;96587.06;;;16.78;63.80
49044;BME280;34860;48.066;14.124;2023-05-21T00:08:01;96578.56;;;16.73;63.76
49044;BME280;34860;48.066;14.124;2023-05-21T00:10:50;96577.97;;;16.68;63.79
49044;BME280;34860;48.066;14.124;2023-05-21T00:13:40;96571.78;;;16.64;63.82
49044;BME280;34860;48.066;14.124;2023-05-21T00:16:34;96571.94;;;16.61;63.86
49044;BME280;34860;48.066;14.124;2023-05-21T00:19:28;96570.59;;;16.56;63.84
49044;BME280;34860;48.066;14.124;2023-05-21T00:22:18;96564.88;;;16.50;63.93
49044;BME280;34860;48.066;14.124;2023-05-21T00:25:08;96564.56;;;16.48;63.87
49044;BME280;34860;48.066;14.124;2023-05-21T00:28:00;96571.13;;;16.45;63.93
49044;BME280;34860;48.066;14.124;2023-05-21T00:30:51;96564.44;;;16.43;63.77
49044;BME280;34860;48.066;14.124;2023-05-21T00:33:43;96555.94;;;16.37;63.98
49044;BME280;34860;48.066;14.124;2023-05-21T00:36:36;96550.00;;;16.35;63.98
49044;BME280;34860;48.066;14.124;2023-05-21T00:39:30;96550.97;;;16.32;64.01
49044;BME280;34860;48.066;14.124;2023-05-21T00:42:18;96549.59;;;16.27;63.73
49044;BME280;34860;48.066;14.124;2023-05-21T00:45:08;96549.00;;;16.23;64.19
49044;BME280;34860;48.066;14.124;2023-05-21T00:48:01;96555.88;;;16.22;63.99
49044;BME280;34860;48.066;14.124;2023-05-21T00:50:51;96552.97;;;16.16;64.11
49044;BME280;34860;48.066;14.124;2023-05-21T00:53:41;96546.28;;;16.14;64.03
49044;BME280;34860;48.066;14.124;2023-05-21T00:56:31;96541.31;;;16.09;64.10
49044;BME280;34860;48.066;14.124;2023-05-21T00:59:20;96539.94;;;16.04;64.16
49044;BME280;34860;48.066;14.124;2023-05-21T01:02:09;96536.53;;;16.00;64.18
49044;BME280;34860;48.066;14.124;2023-05-21T01:05:03;96533.16;;;15.96;64.25
49044;BME280;34860;48.066;14.124;2023-05-21T01:07:55;96530.06;;;15.94;64.17
49044;BME280;34860;48.066;14.124;2023-05-21T01:10:46;96528.69;;;15.89;64.31
49044;BME280;34860;48.066;14.124;2023-05-21T01:13:45;96525.28;;;15.85;64.02
49044;BME280;34860;48.066;14.124;2023-05-21T01:16:36;96524.19;;;15.83;64.37
49044;BME280;34860;48.066;14.124;2023-05-21T01:19:26;96523.13;;;15.80;64.26
49044;BME280;34860;48.066;14.124;2023-05-21T01:22:20;96532.78;;;15.79;64.09
49044;BME280;34860;48.066;14.124;2023-05-21T01:25:12;96526.13;;;15.76;64.27
49044;BME280;34860;48.066;14.124;2023-05-21T01:28:08;96527.78;;;15.74;64.25
49044;BME280;34860;48.066;14.124;2023-05-21T01:31:06;96529.03;;;15.73;64.13
49044;BME280;34860;48.066;14.124;2023-05-21T01:34:00;96527.66;;;15.68;64.33
49044;BME280;34860;48.066;14.124;2023-05-21T01:37:11;96525.81;;;15.65;64.33
49044;BME280;34860;48.066;14.124;2023-05-21T01:40:08;96526.78;;;15.62;64.37
49044;BME280;34860;48.066;14.124;2023-05-21T01:43:00;96533.63;;;15.61;64.39
49044;BME280;34860;48.066;14.124;2023-05-21T01:45:53;96520.28;;;15.56;64.30
49044;BME280;34860;48.066;14.124;2023-05-21T01:48:45;96525.53;;;15.54;64.57
49044;BME280;34860;48.066;14.124;2023-05-21T01:51:38;96508.44;;;15.52;64.35
49044;BME280;34860;48.066;14.124;2023-05-21T01:54:29;96515.75;;;15.49;64.46
49044;BME280;34860;48.066;14.124;2023-05-21T01:57:24;96510.81;;;15.44;64.57
49044;BME280;34860;48.066;14.124;2023-05-21T02:00:16;96513.31;;;15.42;64.54
49044;BME280;34860;48.066;14.124;2023-05-21T02:03:10;96511.47;;;15.39;64.46
49044;BME280;34860;48.066;14.124;2023-05-21T02:06:02;96516.78;;;15.37;64.49
49044;BME280;34860;48.066;14.124;2023-05-21T02:08:52;96508.53;;;15.33;64.45
49044;BME280;34860;48.066;14.124;2023-05-21T02:11:41;96513.06;;;15.31;64.48
49044;BME280;34860;48.066;14.124;2023-05-21T02:14:30;96498.75;;;15.29;64.58
49044;BME280;34860;48.066;14.124;2023-05-21T02:17:25;96509.63;;;15.26;64.81
49044;BME280;34860;48.066;14.124;2023-05-21T02:20:19;96502.97;;;15.24;64.56
49044;BME280;34860;48.066;14.124;2023-05-21T02:23:14;96506.72;;;15.21;64.57
49044;BME280;34860;48.066;14.124;2023-05-21T02:26:02;96500.78;;;15.19;64.57
49044;BME280;34860;48.066;14.124;2023-05-21T02:28:57;96498.19;;;15.15;64.82
49044;BME280;34860;48.066;14.124;2023-05-21T02:31:48;96505.03;;;15.14;64.64
49044;BME280;34860;48.066;14.124;2023-05-21T02:34:41;96496.31;;;15.12;64.81
49044;BME280;34860;48.066;14.124;2023-05-21T02:37:31;96504.25;;;15.14;64.87
49044;BME280;34860;48.066;14.124;2023-05-21T02:40:21;96506.91;;;15.08;64.50
49044;BME280;34860;48.066;14.124;2023-05-21T02:43:11;96505.34;;;15.07;64.56
49044;BME280;34860;48.066;14.124;2023-05-21T02:46:03;96497.44;;;15.05;64.68
49044;BME280;34860;48.066;14.124;2023-05-21T02:48:55;96497.13;;;15.03;64.64
49044;BME280;34860;48.066;14.124;2023-05-21T02:51:51;96497.13;;;15.03;64.59
49044;BME280;34860;48.066;14.124;2023-05-21T02:54:39;96494.03;;;15.01;64.72
49044;BME280;34860;48.066;14.124;2023-05-21T02:57:32;96496.03;;;15.01;64.62
49044;BME280;34860;48.066;14.124;2023-05-21T03:00:20;96484.84;;;15.01;64.68
49044;BME280;34860;48.066;14.124;2023-05-21T03:03:11;96486.88;;;15.00;64.60
49044;BME280;34860;48.066;14.124;2023-05-21T03:06:03;96480.53;;;15.00;64.71
49044;BME280;34860;48.066;14.124;2023-05-21T03:08:54;96490.91;;;14.99;64.64
49044;BME280;34860;48.066;14.124;2023-05-21T03:11:44;96497.31;;;15.00;64.68
49044;BME280;34860;48.066;14.124;2023-05-21T03:14:33;96487.81;;;14.97;64.69
49044;BME280;34860;48.066;14.124;2023-05-21T03:17:23;96497.44;;;14.96;64.70
49044;BME280;34860;48.066;14.124;2023-05-21T03:20:14;96490.63;;;14.97;64.71
49044;BME280;34860;48.066;14.124;2023-05-21T03:23:08;96489.38;;;14.98;64.75
49044;BME280;34860;48.066;14.124;2023-05-21T03:26:05;96484.72;;;14.95;64.75
49044;BME280;34860;48.066;14.124;2023-05-21T03:28:53;96488.28;;;14.96;64.70
49044;BME280;34860;48.066;14.124;2023-05-21T03:31:48;96495.13;;;14.95;64.78
49044;BME280;34860;48.066;14.124;2023-05-21T03:34:38;96489.53;;;14.95;64.65
49044;BME280;34860;48.066;14.124;2023-05-21T03:37:27;96495.13;;;14.95;64.69
49044;BME280;34860;48.066;14.124;2023-05-21T03:40:18;96488.75;;;14.94;64.73
49044;BME280;34860;48.066;14.124;2023-05-21T03:43:10;96486.72;;;14.95;64.82
49044;BME280;34860;48.066;14.124;2023-05-21T03:46:00;96497.16;;;14.94;64.65
49044;BME280;34860;48.066;14.124;2023-05-21T03:49:15;96500.72;;;14.95;64.69
49044;BME280;34860;48.066;14.124;2023-05-21T03:52:09;96498.41;;;14.93;64.57
49044;BME280;34860;48.066;14.124;2023-05-21T03:54:58;96506.78;;;14.93;64.76
49044;BME280;34860;48.066;14.124;2023-05-21T03:57:49;96511.91;;;14.95;64.72
49044;BME280;34860;48.066;14.124;2023-05-21T04:00:45;96516.75;;;14.94;64.76
49044;BME280;34860;48.066;14.124;2023-05-21T04:03:35;96509.91;;;14.95;64.87
49044;BME280;34860;48.066;14.124;2023-05-21T04:06:26;96512.25;;;14.97;64.84
49044;BME280;34860;48.066;14.124;2023-05-21T04:09:20;96505.38;;;14.98;64.63
49044;BME280;34860;48.066;14.124;2023-05-21T04:12:10;96507.72;;;14.99;64.75
49044;BME280;34860;48.066;14.124;2023-05-21T04:15:01;96502.91;;;15.00;64.67
49044;BME280;34860;48.066;14.124;2023-05-21T04:17:51;96500.88;;;15.00;64.77
49044;BME280;34860;48.066;14.124;2023-05-21T04:20:43;96509.56;;;15.02;64.72
49044;BME280;34860;48.066;14.124;2023-05-21T04:23:37;96505.53;;;15.03;64.67
49044;BME280;34860;48.066;14.124;2023-05-21T04:26:32;96519.81;;;15.05;64.79
49044;BME280;34860;48.066;14.124;2023-05-21T04:29:27;96516.84;;;15.09;64.66
49044;BME280;34860;48.066;14.124;2023-05-21T04:32:16;96520.28;;;15.13;64.64
49044;BME280;34860;48.066;14.124;2023-05-21T04:35:10;96522.91;;;15.17;64.65
49044;BME280;34860;48.066;14.124;2023-05-21T04:38:04;96522.72;;;15.20;64.59
49044;BME280;34860;48.066;14.124;2023-05-21T04:40:56;96525.38;;;15.24;64.39
49044;BME280;34860;48.066;14.124;2023-05-21T04:43:51;96532.38;;;15.29;64.62
49044;BME280;34860;48.066;14.124;2023-05-21T04:46:48;96532.94;;;15.33;64.52
49044;BME280;34860;48.066;14.124;2023-05-21T04:49:38;96532.31;;;15.38;64.39
49044;BME280;34860;48.066;14.124;2023-05-21T04:52:32;96528.09;;;15.42;64.58
49044;BME280;34860;48.066;14.124;2023-05-21T04:55:25;96533.38;;;15.50;64.40
49044;BME280;34860;48.066;14.124;2023-05-21T04:58:17;96528.19;;;15.57;64.35
49044;BME280;34860;48.066;14.124;2023-05-21T05:01:09;96525.81;;;15.65;64.19
49044;BME280;34860;48.066;14.124;2023-05-21T05:03:59;96523.75;;;15.75;64.26
49044;BME280;34860;48.066;14.124;2023-05-21T05:06:53;96526.03;;;15.86;64.04
49044;BME280;34860;48.066;14.124;2023-05-21T05:09:45;96532.69;;;15.97;64.04
49044;BME280;34860;48.066;14.124;2023-05-21T05:12:33;96537.28;;;16.10;64.04
49044;BME280;34860;48.066;14.124;2023-05-21T05:15:25;96531.59;;;16.19;63.80
49044;BME280;34860;48.066;14.124;2023-05-21T05:18:16;96529.81;;;16.31;63.74
49044;BME280;34860;48.066;14.124;2023-05-21T05:21:05;96530.59;;;16.46;63.84
49044;BME280;34860;48.066;14.124;2023-05-21T05:23:57;96525.50;;;16.60;63.67
49044;BME280;34860;48.066;14.124;2023-05-21T05:26:50;96518.88;;;16.72;63.52
49044;BME280;34860;48.066;14.124;2023-05-21T05:29:44;96522.94;;;16.86;63.52
49044;BME280;34860;48.066;14.124;2023-05-21T05:32:35;96515.03;;;16.99;63.18
49044;BME280;34860;48.066;14.124;2023-05-21T05:35:26;96516.28;;;17.13;63.32
49044;BME280;34860;48.066;14.124;2023-05-21T05:38:15;96517.72;;;17.23;63.32
49044;BME280;34860;48.066;14.124;2023-05-21T05:41:03;96511.22;;;17.32;63.21
49044;BME280;34860;48.066;14.124;2023-05-21T05:44:03;96514.19;;;17.43;63.33
49044;BME280;34860;48.066;14.124;2023-05-21T05:46:55;96516.69;;;17.56;63.40
49044;BME280;34860;48.066;14.124;2023-05-21T05:49:47;96515.34;;;17.67;63.45
49044;BME280;34860;48.066;14.124;2023-05-21T05:52:36;96507.06;;;17.78;63.01
49044;BME280;34860;48.066;14.124;2023-05-21T05:55:31;96504.13;;;17.87;63.57
49044;BME280;34860;48.066;14.124;2023-05-21T05:58:23;96511.66;;;17.96;63.48
49044;BME280;34860;48.066;14.124;2023-05-21T06:01:24;96504.34;;;18.04;63.56
49044;BME280;34860;48.066;14.124;2023-05-21T06:04:14;96504.44;;;18.10;63.63
49044;BME280;34860;48.066;14.124;2023-05-21T06:07:06;96508.59;;;18.14;63.57
49044;BME280;34860;48.066;14.124;2023-05-21T06:09:55;96508.38;;;18.18;63.72
49044;BME280;34860;48.066;14.124;2023-05-21T06:12:46;96515.06;;;18.21;63.65
49044;BME280;34860;48.066;14.124;2023-05-21T06:15:39;96502.25;;;18.20;63.71
49044;BME280;34860;48.066;14.124;2023-05-21T06:18:32;96509.72;;;18.23;63.61
49044;BME280;34860;48.066;14.124;2023-05-21T06:21:20;96505.34;;;18.22;63.86
49044;BME280;34860;48.066;14.124;2023-05-21T06:24:11;96511.53;;;18.26;63.87
49044;BME280;34860;48.066;14.124;2023-05-21T06:27:02;96504.16;;;18.28;64.07
49044;BME280;34860;48.066;14.124;2023-05-21T06:29:53;96504.44;;;18.30;63.91
49044;BME280;34860;48.066;14.124;2023-05-21T06:32:49;96503.72;;;18.36;63.85
49044;BME280;34860;48.066;14.124;2023-05-21T06:35:41;96496.63;;;18.40;63.80
49044;BME280;34860;48.066;14.124;2023-05-21T06:38:35;96497.16;;;18.44;63.60
49044;BME280;34860;48.066;14.124;2023-05-21T06:41:26;96494.16;;;18.48;63.91
49044;BME280;34860;48.066;14.124;2023-05-21T06:44:17;96497.81;;;18.54;63.82
49044;BME280;34860;48.066;14.124;2023-05-21T06:47:22;96493.47;;;18.59;63.92
49044;BME280;34860;48.066;14.124;2023-05-21T06:50:11;96486.38;;;18.63;63.67
49044;BME280;34860;48.066;14.124;2023-05-21T06:53:02;96490.03;;;18.69;63.73
49044;BME280;34860;48.066;14.124;2023-05-21T06:55:52;96497.25;;;18.76;63.73
49044;BME280;34860;48.066;14.124;2023-05-21T06:58:53;96498.88;;;18.83;63.59
49044;BME280;34860;48.066;14.124;2023-05-21T07:01:44;96500.50;;;18.90;63.54
49044;BME280;34860;48.066;14.124;2023-05-21T07:04:33;96508.47;;;18.97;63.46
49044;BME280;34860;48.066;14.124;2023-05-21T07:07:29;96504.47;;;19.03;63.50
49044;BME280;34860;48.066;14.124;2023-05-21T07:10:20;96501.19;;;19.11;63.44
49044;BME280;34860;48.066;14.124;2023-05-21T07:13:08;96496.38;;;19.17;63.43
49044;BME280;34860;48.066;14.124;2023-05-21T07:15:57;96496.41;;;19.22;63.33
49044;BME280;34860;48.066;14.124;2023-05-21T07:18:48;96493.91;;;19.30;63.35
49044;BME280;34860;48.066;14.124;2023-05-21T07:21:40;96486.28;;;19.36;63.42
49044;BME280;34860;48.066;14.124;2023-05-21T07:24:29;96490.69;;;19.43;63.50
49044;BME280;34860;48.066;14.124;2023-05-21T07:27:21;96488.19;;;19.51;63.40
49044;BME280;34860;48.066;14.124;2023-05-21T07:30:14;96491.56;;;19.55;63.34
49044;BME280;34860;48.066;14.124;2023-05-21T07:33:07;96495.94;;;19.62;63.38
49044;BME280;34860;48.066;14.124;2023-05-21T07:35:57;96497.03;;;19.70;63.12
49044;BME280;34860;48.066;14.124;2023-05-21T07:38:45;96488.31;;;19.73;63.28
49044;BME280;34860;48.066;14.124;2023-05-21T07:41:36;96487.91;;;19.81;63.30
49044;BME280;34860;48.066;14.124;2023-05-21T07:44:29;96487.16;;;19.86;63.11
49044;BME280;34860;48.066;14.124;2023-05-21T07:47:17;96488.72;;;19.92;63.16
49044;BME280;34860;48.066;14.124;2023-05-21T07:50:07;96483.88;;;19.99;63.17
49044;BME280;34860;48.066;14.124;2023-05-21T07:52:59;96487.50;;;20.05;63.02
49044;BME280;34860;48.066;14.124;2023-05-21T07:55:50;96471.88;;;20.09;62.99
49044;BME280;34860;48.066;14.124;2023-05-21T07:58:46;96483.19;;;20.15;63.09
49044;BME280;34860;48.066;14.124;2023-05-21T08:01:39;96482.44;;;20.20;62.92
49044;BME280;34860;48.066;14.124;2023-05-21T08:04:29;96472.72;;;20.27;62.92
49044;BME280;34860;48.066;14.124;2023-05-21T08:07:23;96484.31;;;20.35;62.71
49044;BME280;34860;48.066;14.124;2023-05-21T08:10:12;96471.25;;;20.43;62.90
49044;BME280;34860;48.066;14.124;2023-05-21T08:13:10;96474.84;;;20.49;62.79
49044;BME280;34860;48.066;14.124;2023-05-21T08:15:59;96468.69;;;20.56;62.89
49044;BME280;34860;48.066;14.124;2023-05-21T08:18:52;96478.53;;;20.66;62.71
49044;BME280;34860;48.066;14.124;2023-05-21T08:21:42;96479.31;;;20.73;62.67
49044;BME280;34860;48.066;14.124;2023-05-21T08:24:40;96487.25;;;20.80;62.62
49044;BME280;34860;48.066;14.124;2023-05-21T08:27:29;96477.50;;;20.86;62.70
49044;BME280;34860;48.066;14.124;2023-05-21T08:30:19;96480.34;;;20.92;62.31
49044;BME280;34860;48.066;14.124;2023-05-21T08:33:12;96473.44;;;20.99;62.64
49044;BME280;34860;48.066;14.124;2023-05-21T08:36:06;96476.28;;;21.04;62.44
49044;BME280;34860;48.066;14.124;2023-05-21T08:39:05;96479.09;;;21.10;62.57
49044;BME280;34860;48.066;14.124;2023-05-21T08:42:06;96479.59;;;21.20;62.52
49044;BME280;34860;48.066;14.124;2023-05-21T08:45:04;96477.53;;;21.26;62.47
49044;BME280;34860;48.066;14.124;2023-05-21T08:47:57;96476.00;;;21.31;62.39
49044;BME280;34860;48.066;14.124;2023-05-21T08:50:51;96473.94;;;21.37;62.41
49044;BME280;34860;48.066;14.124;2023-05-21T08:53:46;96465.44;;;21.42;62.43
49044;BME280;34860;48.066;14.124;2023-05-21T08:56:37;96464.22;;;21.49;62.23
49044;BME280;34860;48.066;14.124;2023-05-21T08:59:32;96471.38;;;21.56;62.25
49044;BME280;34860;48.066;14.124;2023-05-21T09:02:28;96470.34;;;21.65;62.21
49044;BME280;34860;48.066;14.124;2023-05-21T09:05:26;96470.56;;;21.72;62.12
49044;BME280;34860;48.066;14.124;2023-05-21T09:08:25;96471.59;;;21.81;61.96
49044;BME280;34860;48.066;14.124;2023-05-21T09:11:24;96481.06;;;21.89;62.09
49044;BME280;34860;48.066;14.124;2023-05-21T09:14:17;96478.47;;;21.97;62.09
49044;BME280;34860;48.066;14.124;2023-05-21T09:17:18;96479.47;;;22.05;62.01
49044;BME280;34860;48.066;14.124;2023-05-21T09:20:17;96482.56;;;22.12;61.94
49044;BME280;34860;48.066;14.124;2023-05-21T09:23:16;96480.19;;;22.22;62.07
49044;BME280;34860;48.066;14.124;2023-05-21T09:26:09;96491.03;;;22.29;61.83
49044;BME280;34860;48.066;14.124;2023-05-21T09:29:00;96481.97;;;22.37;61.71
49044;BME280;34860;48.066;14.124;2023-05-21T09:31:48;96477.84;;;22.43;61.83
49044;BME280;34860;48.066;14.124;2023-05-21T09:34:40;96472.91;;;22.49;61.73
49044;BME280;34860;48.066;14.124;2023-05-21T09:37:36;96473.38;;;22.59;61.71
49044;BME280;34860;48.066;14.124;2023-05-21T09:40:33;96475.66;;;22.66;61.72
49044;BME280;34860;48.066;14.124;2023-05-21T09:43:22;96472.53;;;22.70;61.89
49044;BME280;34860;48.066;14.124;2023-05-21T09:46:20;96474.31;;;22.73;61.93
49044;BME280;34860;48.066;14.124;2023-05-21T09:49:21;96474.03;;;22.77;61.92
49044;BME280;34860;48.066;14.124;2023-05-21T09:52:10;96469.16;;;22.77;61.79
49044;BME280;34860;48.066;14.124;2023-05-21T09:55:02;96466.53;;;22.79;61.92
49044;BME280;34860;48.066;14.124;2023-05-21T09:57:56;96469.63;;;22.81;61.88
49044;BME280;34860;48.066;14.124;2023-05-21T10:00:51;96478.09;;;22.87;61.64
49044;BME280;34860;48.066;14.124;2023-05-21T10:03:47;96470.63;;;22.90;61.73
49044;BME280;34860;48.066;14.124;2023-05-21T10:06:41;96470.31;;;22.93;61.80
49044;BME280;34860;48.066;14.124;2023-05-21T10:09:33;96461.78;;;22.99;61.60
49044;BME280;34860;48.066;14.124;2023-05-21T10:12:22;96467.41;;;23.04;61.75
49044;BME280;34860;48.066;14.124;2023-05-21T10:15:22;96458.66;;;23.08;61.74
49044;BME280;34860;48.066;14.124;2023-05-21T10:18:12;96463.25;;;23.11;61.49
49044;BME280;34860;48.066;14.124;2023-05-21T10:21:06;96464.28;;;23.14;61.61
49044;BME280;34860;48.066;14.124;2023-05-21T10:23:56;96464.00;;;23.17;61.53
49044;BME280;34860;48.066;14.124;2023-05-21T10:26:51;96450.06;;;23.19;61.66
49044;BME280;34860;48.066;14.124;2023-05-21T10:29:40;96450.53;;;23.24;61.61
49044;BME280;34860;48.066;14.124;2023-05-21T10:32:39;96455.44;;;23.23;61.57
49044;BME280;34860;48.066;14.124;2023-05-21T10:35:31;96453.59;;;23.26;61.52
49044;BME280;34860;48.066;14.124;2023-05-21T10:38:23;96451.31;;;23.24;61.62
49044;BME280;34860;48.066;14.124;2023-05-21T10:41:13;96447.72;;;23.24;61.45
49044;BME280;34860;48.066;14.124;2023-05-21T10:44:10;96448.47;;;23.24;61.75
49044;BME280;34860;48.066;14.124;2023-05-21T10:47:19;96447.13;;;23.31;61.37
49044;BME280;34860;48.066;14.124;2023-05-21T10:50:41;96432.91;;;23.36;61.42
49044;BME280;34860;48.066;14.124;2023-05-21T10:53:45;96433.31;;;23.46;61.18
49044;BME280;34860;48.066;14.124;2023-05-21T10:56:45;96436.56;;;23.56;61.21
49044;BME280;34860;48.066;14.124;2023-05-21T10:59:39;96445.75;;;23.68;61.11
49044;BME280;34860;48.066;14.124;2023-05-21T11:02:29;96436.34;;;23.79;61.08
49044;BME280;34860;48.066;14.124;2023-05-21T11:05:39;96440.41;;;23.89;60.66
49044;BME280;34860;48.066;14.124;2023-05-21T11:08:30;96434.09;;;23.96;60.92
49044;BME280;34860;48.066;14.124;2023-05-21T11:11:41;96438.34;;;24.08;60.74
49044;BME280;34860;48.066;14.124;2023-05-21T11:14:31;96434.63;;;24.19;60.53
49044;BME280;34860;48.066;14.124;2023-05-21T11:17:35;96434.25;;;24.28;60.72
49044;BME280;34860;48.066;14.124;2023-05-21T11:20:33;96433.56;;;24.41;60.54
49044;BME280;34860;48.066;14.124;2023-05-21T11:23:23;96442.16;;;24.55;60.22
49044;BME280;34860;48.066;14.124;2023-05-21T11:27:00;96431.13;;;24.70;60.46
49044;BME280;34860;48.066;14.124;2023-05-21T11:29:55;96436.84;;;24.83;60.39
49044;BME280;34860;48.066;14.124;2023-05-21T11:33:19;96430.66;;;24.98;59.90
49044;BME280;34860;48.066;14.124;2023-05-21T11:36:11;96434.34;;;25.12;59.87
49044;BME280;34860;48.066;14.124;2023-05-21T11:39:08;96425.28;;;25.27;60.00
49044;BME280;34860;48.066;14.124;2023-05-21T11:42:03;96427.13;;;25.44;59.95
49044;BME280;34860;48.066;14.124;2023-05-21T11:44:52;96434.03;;;25.62;59.87
49044;BME280;34860;48.066;14.124;2023-05-21T11:47:42;96430.88;;;25.79;59.51
49044;BME280;34860;48.066;14.124;2023-05-21T11:50:32;96431.56;;;25.98;59.53
49044;BME280;34860;48.066;14.124;2023-05-21T11:53:24;96430.69;;;26.17;59.55
49044;BME280;34860;48.066;14.124;2023-05-21T11:56:13;96426.38;;;26.37;59.30
49044;BME280;34860;48.066;14.124;2023-05-21T11:59:03;96426.97;;;26.56;59.37
49044;BME280;34860;48.066;14.124;2023-05-21T12:01:59;96426.84;;;26.75;59.19
49044;BME280;34860;48.066;14.124;2023-05-21T12:04:48;96426.09;;;26.96;59.05
49044;BME280;34860;48.066;14.124;2023-05-21T12:07:37;96411.66;;;27.15;58.98
49044;BME280;34860;48.066;14.124;2023-05-21T12:10:26;96410.16;;;27.35;58.97
49044;BME280;34860;48.066;14.124;2023-05-21T12:13:15;96420.78;;;27.56;58.79
49044;BME280;34860;48.066;14.124;2023-05-21T12:16:10;96417.09;;;27.76;58.82
49044;BME280;34860;48.066;14.124;2023-05-21T12:19:01;96421.25;;;27.96;58.67
49044;BME280;34860;48.066;14.124;2023-05-21T12:21:51;96416.81;;;28.16;58.30
49044;BME280;34860;48.066;14.124;2023-05-21T12:24:40;96423.00;;;28.36;58.48
49044;BME280;34860;48.066;14.124;2023-05-21T12:27:30;96417.72;;;28.55;58.17
49044;BME280;34860;48.066;14.124;2023-05-21T12:30:21;96421.28;;;28.77;57.94
49044;BME280;34860;48.066;14.124;2023-05-21T12:33:18;96418.25;;;28.98;58.06
49044;BME280;34860;48.066;14.124;2023-05-21T12:36:07;96417.50;;;29.13;57.85
49044;BME280;34860;48.066;14.124;2023-05-21T12:38:57;96428.25;;;29.20;57.86
49044;BME280;34860;48.066;14.124;2023-05-21T12:41:46;96421.72;;;29.20;57.85
49044;BME280;34860;48.066;14.124;2023-05-21T12:44:34;96433.72;;;29.18;57.99
49044;BME280;34860;48.066;14.124;2023-05-21T12:47:30;96419.97;;;29.16;58.03
49044;BME280;34860;48.066;14.124;2023-05-21T12:50:21;96414.66;;;29.13;58.13
49044;BME280;34860;48.066;14.124;2023-05-21T12:53:09;96413.31;;;29.06;58.11
49044;BME280;34860;48.066;14.124;2023-05-21T12:56:08;96419.00;;;28.98;58.28
49044;BME280;34860;48.066;14.124;2023-05-21T12:58:56;96415.34;;;28.83;58.35
49044;BME280;34860;48.066;14.124;2023-05-21T13:01:47;96412.09;;;28.71;58.44
49044;BME280;34860;48.066;14.124;2023-05-21T13:04:38;96417.41;;;28.67;58.39
49044;BME280;34860;48.066;14.124;2023-05-21T13:07:30;96411.66;;;28.59;58.61
49044;BME280;34860;48.066;14.124;2023-05-21T13:10:23;96411.81;;;28.53;58.49
49044;BME280;34860;48.066;14.124;2023-05-21T13:13:14;96412.34;;;28.44;58.54
49044;BME280;34860;48.066;14.124;2023-05-21T13:16:06;96403.34;;;28.32;58.58
49044;BME280;34860;48.066;14.124;2023-05-21T13:18:56;96402.16;;;28.20;58.56
49044;BME280;34860;48.066;14.124;2023-05-21T13:21:45;96404.91;;;28.04;58.30
49044;BME280;34860;48.066;14.124;2023-05-21T13:24:35;96397.41;;;27.94;58.25
49044;BME280;34860;48.066;14.124;2023-05-21T13:27:34;96394.53;;;27.86;58.43
49044;BME280;34860;48.066;14.124;2023-05-21T13:30:23;96399.88;;;27.89;58.68
49044;BME280;34860;48.066;14.124;2023-05-21T13:33:12;96401.88;;;28.02;58.57
49044;BME280;34860;48.066;14.124;2023-05-21T13:36:06;96393.94;;;28.16;58.13
49044;BME280;34860;48.066;14.124;2023-05-21T13:38:56;96397.28;;;28.36;57.95
49044;BME280;34860;48.066;14.124;2023-05-21T13:41:47;96389.69;;;28.54;57.58
49044;BME280;34860;48.066;14.124;2023-05-21T13:44:37;96396.09;;;28.75;57.62
49044;BME280;34860;48.066;14.124;2023-05-21T13:47:25;96399.16;;;29.01;57.38
49044;BME280;34860;48.066;14.124;2023-05-21T13:50:15;96388.94;;;29.28;57.34
49044;BME280;34860;48.066;14.124;2023-05-21T13:53:05;96393.50;;;29.55;57.11
49044;BME280;34860;48.066;14.124;2023-05-21T13:55:54;96390.41;;;29.76;56.83
49044;BME280;34860;48.066;14.124;2023-05-21T13:58:46;96395.00;;;29.94;56.71
49044;BME280;34860;48.066;14.124;2023-05-21T14:01:35;96401.06;;;30.14;56.56
49044;BME280;34860;48.066;14.124;2023-05-21T14:04:30;96395.06;;;30.35;56.47
49044;BME280;34860;48.066;14.124;2023-05-21T14:07:19;96397.47;;;30.54;56.41
49044;BME280;34860;48.066;14.124;2023-05-21T14:10:11;96391.25;;;30.73;56.32
49044;BME280;34860;48.066;14.124;2023-05-21T14:13:01;96388.69;;;30.92;56.18
49044;BME280;34860;48.066;14.124;2023-05-21T14:16:01;96395.63;;;31.14;55.96
49044;BME280;34860;48.066;14.124;2023-05-21T14:18:52;96394.50;;;31.35;55.88
49044;BME280;34860;48.066;14.124;2023-05-21T14:21:43;96396.09;;;31.54;55.70
49044;BME280;34860;48.066;14.124;2023-05-21T14:24:34;96386.94;;;31.73;55.78
49044;BME280;34860;48.066;14.124;2023-05-21T14:27:22;96390.75;;;31.93;55.42
49044;BME280;34860;48.066;14.124;2023-05-21T14:30:11;96390.03;;;32.10;55.31
49044;BME280;34860;48.066;14.124;2023-05-21T14:33:03;96386.19;;;32.25;55.32
49044;BME280;34860;48.066;14.124;2023-05-21T14:35:58;96382.06;;;32.35;55.31
49044;BME280;34860;48.066;14.124;2023-05-21T14:38:46;96395.91;;;32.47;55.08
49044;BME280;34860;48.066;14.124;2023-05-21T14:41:40;96387.34;;;32.56;54.99
49044;BME280;34860;48.066;14.124;2023-05-21T14:44:29;96378.63;;;32.64;54.92
49044;BME280;34860;48.066;14.124;2023-05-21T14:47:23;96376.84;;;32.69;54.46
49044;BME280;34860;48.066;14.124;2023-05-21T14:50:14;96375.22;;;32.75;54.49
49044;BME280;34860;48.066;14.124;2023-05-21T14:53:03;96381.75;;;32.76;54.62
49044;BME280;34860;48.066;14.124;2023-05-21T14:55:52;96374.72;;;32.69;54.69
49044;BME280;34860;48.066;14.124;2023-05-21T14:58:44;96387.53;;;32.58;54.81
49044;BME280;34860;48.066;14.124;2023-05-21T15:01:37;96380.28;;;32.40;54.57
49044;BME280;34860;48.066;14.124;2023-05-21T15:04:30;96375.47;;;32.25;54.90